Time;durP1;ratioP1;P1;durP2;ratioP2;P2;SDS_P1;SDS_P2;PMS_P1;PMS_P2;Temp;Humidity;BMP_temperature;BMP_pressure;BME280_temperature;BME280_humidity;BME280_pressure;Samples;Min_cycle;Max_cycle;Signal;HPM_P1;HPM_P2
2023/04/14 00:01:24;;;;;;;16.50;9.50;;;7.20;99.90;;;;;;4227604;28;20028;-60
2023/04/14 00:03:25;;;;;;;16.73;9.53;;;7.20;99.90;;;;;;4226313;28;20039;-60
2023/04/14 00:05:30;;;;;;;17.50;10.00;;;7.20;99.90;;;;;;4227559;28;20032;-61
2023/04/14 00:07:31;;;;;;;14.50;9.63;;;7.20;99.90;;;;;;4226179;28;20051;-60
2023/04/14 00:09:32;;;;;;;15.87;10.87;;;7.20;99.90;;;;;;4227823;28;20020;-58
2023/04/14 00:11:34;;;;;;;22.07;9.97;;;7.30;99.90;;;;;;4230417;28;20023;-60
2023/04/14 00:13:35;;;;;;;14.73;9.80;;;7.20;99.90;;;;;;4230888;28;20104;-60
2023/04/14 00:15:36;;;;;;;21.20;11.27;;;7.30;99.90;;;;;;4230244;28;20421;-55
2023/04/14 00:17:37;;;;;;;20.43;11.30;;;7.20;99.90;;;;;;4230713;28;20063;-65
2023/04/14 00:19:38;;;;;;;22.07;12.20;;;7.20;99.90;;;;;;4229548;28;20088;-63
2023/04/14 00:21:40;;;;;;;24.67;11.43;;;7.20;99.90;;;;;;4231621;28;20020;-61
2023/04/14 00:23:41;;;;;;;24.33;12.07;;;7.20;99.90;;;;;;4229398;28;20089;-61
2023/04/14 00:25:42;;;;;;;21.23;10.17;;;7.10;99.90;;;;;;4230753;28;20040;-61
2023/04/14 00:27:43;;;;;;;24.90;11.97;;;7.10;99.90;;;;;;4229663;28;20033;-61
2023/04/14 00:29:44;;;;;;;26.83;11.63;;;7.10;99.90;;;;;;4229962;28;20487;-62
2023/04/14 00:31:46;;;;;;;26.23;10.97;;;7.10;99.90;;;;;;4230596;28;20028;-60
2023/04/14 00:33:47;;;;;;;18.43;11.20;;;7.20;99.90;;;;;;4230706;28;20573;-61
2023/04/14 00:35:48;;;;;;;19.93;11.50;;;7.20;99.90;;;;;;4229694;28;20084;-61
2023/04/14 00:37:50;;;;;;;18.00;10.63;;;7.20;99.90;;;;;;4230030;28;20035;-60
2023/04/14 00:39:51;;;;;;;19.97;9.77;;;7.20;99.90;;;;;;4230267;28;20529;-61
2023/04/14 00:41:53;;;;;;;18.33;8.37;;;7.30;99.90;;;;;;4228124;28;20019;-60
2023/04/14 00:43:54;;;;;;;18.17;9.97;;;7.30;99.90;;;;;;4230746;28;20511;-64
2023/04/14 00:45:55;;;;;;;16.17;9.17;;;7.40;99.90;;;;;;4229454;28;20031;-60
2023/04/14 00:47:57;;;;;;;19.67;10.60;;;7.40;99.90;;;;;;4231201;28;20417;-61
2023/04/14 00:49:58;;;;;;;18.00;10.23;;;7.50;99.90;;;;;;4229513;28;20036;-64
2023/04/14 00:51:59;;;;;;;17.67;9.60;;;7.40;99.90;;;;;;4230027;28;20088;-60
2023/04/14 00:54:04;;;;;;;15.33;9.33;;;7.40;99.90;;;;;;4229707;28;20085;-59
2023/04/14 00:56:06;;;;;;;16.97;9.50;;;7.50;99.90;;;;;;4231003;28;20422;-59
2023/04/14 00:58:08;;;;;;;18.37;10.50;;;7.50;99.90;;;;;;4229841;28;20043;-64
2023/04/14 01:00:11;;;;;;;15.53;8.90;;;7.50;99.90;;;;;;4230764;28;20031;-61
2023/04/14 01:02:12;;;;;;;12.67;9.33;;;7.50;99.90;;;;;;4229822;28;20069;-60
2023/04/14 01:04:15;;;;;;;19.10;9.43;;;7.40;99.90;;;;;;4229373;28;20036;-60
2023/04/14 01:06:16;;;;;;;17.37;9.43;;;7.40;99.90;;;;;;4230370;28;20039;-61
2023/04/14 01:08:19;;;;;;;15.33;9.20;;;7.50;99.90;;;;;;4229267;28;20113;-61
2023/04/14 01:10:22;;;;;;;22.03;10.30;;;7.50;99.90;;;;;;4230312;28;20053;-61
2023/04/14 01:12:58;;;;;;;20.93;10.87;;;7.50;99.90;;;;;;4228393;28;20116;-61
2023/04/14 01:15:11;;;;;;;17.57;9.73;;;7.40;99.90;;;;;;4230091;28;20072;-63
2023/04/14 01:17:20;;;;;;;23.10;10.67;;;7.30;99.90;;;;;;4229421;28;20442;-60
2023/04/14 01:19:55;;;;;;;19.40;10.70;;;7.30;99.90;;;;;;4230153;28;20031;-60
2023/04/14 01:22:04;;;;;;;16.47;10.50;;;7.30;99.90;;;;;;4229608;28;20040;-61
2023/04/14 01:24:20;;;;;;;19.47;9.97;;;7.20;99.90;;;;;;4229450;28;20028;-60
2023/04/14 01:26:28;;;;;;;18.60;10.47;;;7.30;99.90;;;;;;4230595;28;20028;-65
2023/04/14 01:29:01;;;;;;;20.40;11.80;;;7.30;99.90;;;;;;4228390;28;20487;-61
2023/04/14 01:31:31;;;;;;;20.17;11.03;;;7.20;99.90;;;;;;4230524;28;20024;-60
2023/04/14 01:33:37;;;;;;;20.30;10.47;;;7.20;99.90;;;;;;4229450;28;20024;-58
2023/04/14 01:35:51;;;;;;;19.00;9.87;;;7.10;99.90;;;;;;4230291;28;20023;-61
2023/04/14 01:37:58;;;;;;;15.37;9.57;;;7.20;99.90;;;;;;4229196;28;20039;-60
2023/04/14 01:40:06;;;;;;;15.63;9.07;;;7.20;99.90;;;;;;4230392;28;20101;-61
2023/04/14 01:42:12;;;;;;;15.70;9.10;;;7.20;99.90;;;;;;4225730;28;20035;-61
2023/04/14 01:44:17;;;;;;;15.70;8.13;;;7.20;99.90;;;;;;4212705;28;20391;-64
2023/04/14 01:46:20;;;;;;;15.50;9.27;;;7.20;99.90;;;;;;4212160;28;20040;-66
2023/04/14 01:48:23;;;;;;;17.20;9.20;;;7.30;99.90;;;;;;4223839;28;20031;-64
2023/04/14 01:50:25;;;;;;;14.90;8.50;;;7.30;99.90;;;;;;4229057;28;20439;-65
2023/04/14 01:52:29;;;;;;;14.80;8.23;;;7.40;99.90;;;;;;4229169;28;20093;-60
2023/04/14 01:54:32;;;;;;;12.73;7.07;;;7.40;99.90;;;;;;4228800;28;20020;-59
2023/04/14 01:56:35;;;;;;;15.23;7.60;;;7.50;99.90;;;;;;4229855;28;20073;-61
2023/04/14 01:58:38;;;;;;;12.47;7.27;;;7.50;99.90;;;;;;4229261;28;20061;-61
2023/04/14 02:00:41;;;;;;;13.00;7.43;;;7.50;99.90;;;;;;4229276;28;20031;-61
2023/04/14 02:02:45;;;;;;;13.03;7.50;;;7.50;99.90;;;;;;4210626;28;20077;-60
2023/04/14 02:04:47;;;;;;;10.17;6.80;;;7.50;99.90;;;;;;4228627;28;20438;-66
2023/04/14 02:06:50;;;;;;;13.50;7.43;;;7.50;99.90;;;;;;4228790;28;20065;-61
2023/04/14 02:08:51;;;;;;;13.50;6.80;;;7.50;99.90;;;;;;4228835;28;20019;-62
2023/04/14 02:10:54;;;;;;;12.70;7.20;;;7.50;99.90;;;;;;4229597;28;20419;-62
2023/04/14 02:12:57;;;;;;;12.40;7.13;;;7.50;99.90;;;;;;4228540;28;20076;-62
2023/04/14 02:15:00;;;;;;;12.17;7.23;;;7.60;99.90;;;;;;4229772;28;20468;-62
2023/04/14 02:17:03;;;;;;;10.10;6.97;;;7.60;99.90;;;;;;4227466;28;20044;-60
2023/04/14 02:19:04;;;;;;;11.00;6.53;;;7.60;99.90;;;;;;4229737;28;20445;-59
2023/04/14 02:21:07;;;;;;;11.33;6.30;;;7.70;99.90;;;;;;4228665;28;20487;-62
2023/04/14 02:23:10;;;;;;;9.07;5.97;;;7.70;99.90;;;;;;4228900;28;20175;-60
2023/04/14 02:25:11;;;;;;;9.87;6.37;;;7.80;99.90;;;;;;4227955;28;20481;-60
2023/04/14 02:27:21;;;;;;;10.83;6.77;;;7.80;99.90;;;;;;4229551;28;20429;-60
2023/04/14 02:29:25;;;;;;;11.77;6.63;;;7.90;99.90;;;;;;4228661;28;20409;-61
2023/04/14 02:31:29;;;;;;;8.77;5.70;;;7.90;99.90;;;;;;4229494;28;20536;-60
2023/04/14 02:33:34;;;;;;;9.37;6.30;;;7.90;99.90;;;;;;4228305;28;20499;-61
2023/04/14 02:35:45;;;;;;;9.50;5.83;;;7.90;99.90;;;;;;4229491;28;20027;-61
2023/04/14 02:37:53;;;;;;;9.43;5.90;;;7.90;99.90;;;;;;4227363;28;20105;-58
2023/04/14 02:40:00;;;;;;;9.43;5.70;;;7.90;99.90;;;;;;4228879;28;20081;-61
2023/04/14 02:42:09;;;;;;;11.47;6.10;;;7.80;99.90;;;;;;4227017;28;20459;-63
2023/04/14 02:44:30;;;;;;;8.80;5.77;;;7.80;99.90;;;;;;4228256;28;20100;-61
2023/04/14 02:46:39;;;;;;;10.63;6.72;;;7.70;99.90;;;;;;4226954;28;20039;-60
2023/04/14 02:48:41;;;;;;;13.67;6.77;;;7.60;99.90;;;;;;4229331;28;20540;-61
2023/04/14 02:50:48;;;;;;;10.03;6.30;;;7.50;99.90;;;;;;4227381;28;20097;-61
2023/04/14 02:52:51;;;;;;;11.37;6.80;;;7.50;99.90;;;;;;4228488;28;20089;-60
2023/04/14 02:54:53;;;;;;;10.63;5.53;;;7.40;99.90;;;;;;4227967;28;20412;-62
2023/04/14 02:56:56;;;;;;;11.70;6.80;;;7.50;99.90;;;;;;4228731;28;20024;-60
2023/04/14 02:58:58;;;;;;;10.50;6.30;;;7.40;99.90;;;;;;4228469;28;20062;-59
2023/04/14 03:01:00;;;;;;;10.70;6.87;;;7.40;99.90;;;;;;4227154;28;20483;-66
2023/04/14 03:03:03;;;;;;;11.47;7.17;;;7.40;99.90;;;;;;4227221;28;20027;-60
2023/04/14 03:05:05;;;;;;;12.53;6.70;;;7.40;99.90;;;;;;4228094;28;20019;-63
2023/04/14 03:07:12;;;;;;;13.93;7.47;;;7.30;99.90;;;;;;4228091;28;20028;-60
2023/04/14 03:09:14;;;;;;;10.67;6.53;;;7.20;99.90;;;;;;4227548;28;20518;-60
2023/04/14 03:11:16;;;;;;;10.30;6.90;;;7.20;99.90;;;;;;4228856;28;20080;-61
2023/04/14 03:13:19;;;;;;;12.37;7.57;;;7.20;99.90;;;;;;4226741;28;20057;-64
2023/04/14 03:15:22;;;;;;;15.30;7.10;;;7.20;99.90;;;;;;4227642;28;20063;-60
2023/04/14 03:17:25;;;;;;;11.77;7.30;;;7.10;99.90;;;;;;4227653;28;20425;-61
2023/04/14 03:19:27;;;;;;;11.47;7.40;;;7.00;99.90;;;;;;4228179;28;20449;-61
2023/04/14 03:21:30;;;;;;;11.20;6.87;;;7.00;99.90;;;;;;4227505;28;20104;-59
2023/04/14 03:23:32;;;;;;;11.50;7.23;;;6.90;99.90;;;;;;4228650;28;20028;-60
2023/04/14 03:25:38;;;;;;;12.07;6.93;;;6.90;99.90;;;;;;4226143;28;20035;-59
2023/04/14 03:27:43;;;;;;;9.77;6.37;;;6.90;99.90;;;;;;4227830;28;20452;-60
2023/04/14 03:29:53;;;;;;;10.27;6.20;;;6.90;99.90;;;;;;4226792;28;20080;-60
2023/04/14 03:31:59;;;;;;;8.85;5.90;;;7.00;99.90;;;;;;4228291;28;20418;-62
2023/04/14 03:34:03;;;;;;;16.37;6.80;;;7.00;99.90;;;;;;4227276;28;20096;-60
2023/04/14 03:36:06;;;;;;;11.40;7.00;;;7.00;99.90;;;;;;4228249;28;20093;-60
2023/04/14 03:38:09;;;;;;;14.90;7.27;;;7.00;99.90;;;;;;4227445;28;20027;-60
2023/04/14 03:40:13;;;;;;;14.40;6.50;;;7.00;99.90;;;;;;4227949;28;20078;-61
2023/04/14 03:42:15;;;;;;;12.97;7.57;;;7.00;99.90;;;;;;4226933;28;20028;-61
2023/04/14 03:44:18;;;;;;;13.57;7.63;;;6.90;99.90;;;;;;4226644;28;20092;-61
2023/04/14 03:46:22;;;;;;;11.80;7.10;;;6.90;99.90;;;;;;4226754;28;20036;-61
2023/04/14 03:48:28;;;;;;;15.03;8.47;;;6.80;99.90;;;;;;4226289;28;20085;-60
2023/04/14 03:50:34;;;;;;;20.00;9.10;;;6.80;99.90;;;;;;4227115;28;20040;-60
2023/04/14 03:52:38;;;;;;;12.03;7.37;;;6.70;99.90;;;;;;4226579;28;20488;-65
2023/04/14 03:54:41;;;;;;;10.57;7.00;;;6.70;99.90;;;;;;4227501;28;20039;-64
2023/04/14 03:56:46;;;;;;;13.87;7.13;;;6.70;99.90;;;;;;4226987;28;20081;-62
2023/04/14 03:58:51;;;;;;;13.93;7.50;;;6.70;99.90;;;;;;4228481;28;20076;-59
2023/04/14 04:00:54;;;;;;;16.03;7.60;;;6.70;99.90;;;;;;4226273;28;20032;-60
2023/04/14 04:02:57;;;;;;;12.17;7.87;;;6.60;99.90;;;;;;4227312;28;20032;-61
2023/04/14 04:04:58;;;;;;;14.30;8.20;;;6.60;99.90;;;;;;4226297;28;20445;-58
2023/04/14 04:06:59;;;;;;;16.53;8.93;;;6.50;99.90;;;;;;4228244;28;20073;-61
2023/04/14 04:09:01;;;;;;;14.47;8.83;;;6.40;99.90;;;;;;4227080;28;20092;-61
2023/04/14 04:11:06;;;;;;;11.37;7.20;;;6.40;99.90;;;;;;4228021;28;20031;-61
2023/04/14 04:13:11;;;;;;;18.27;8.03;;;6.40;99.90;;;;;;4226716;28;20053;-61
2023/04/14 04:15:13;;;;;;;11.07;6.77;;;6.50;99.90;;;;;;4227866;28;20032;-62
2023/04/14 04:17:18;;;;;;;13.63;6.97;;;6.60;99.90;;;;;;4208221;28;20036;-59
2023/04/14 04:19:21;;;;;;;11.93;6.30;;;6.80;99.90;;;;;;4227734;28;20092;-61
2023/04/14 04:21:26;;;;;;;10.17;5.93;;;6.90;99.90;;;;;;4220711;28;20160;-61
2023/04/14 04:23:31;;;;;;;12.00;6.30;;;7.00;99.90;;;;;;4227854;28;20073;-66
2023/04/14 04:25:35;;;;;;;10.43;6.37;;;7.00;99.90;;;;;;4226014;28;20047;-62
2023/04/14 04:27:36;;;;;;;10.40;6.83;;;7.00;99.90;;;;;;4227158;28;20036;-63
2023/04/14 04:29:38;;;;;;;12.63;7.07;;;7.00;99.90;;;;;;4227912;28;20101;-61
2023/04/14 04:31:39;;;;;;;11.87;6.50;;;7.00;99.90;;;;;;4226512;28;20085;-61
2023/04/14 04:33:41;;;;;;;13.03;8.37;;;7.00;99.90;;;;;;4227356;28;20123;-61
2023/04/14 04:35:43;;;;;;;9.80;6.13;;;7.00;99.90;;;;;;4225737;28;20035;-61
2023/04/14 04:37:45;;;;;;;11.73;7.20;;;7.00;99.90;;;;;;4227827;28;20027;-61
2023/04/14 04:39:47;;;;;;;9.30;6.43;;;7.00;99.90;;;;;;4225721;28;20113;-62
2023/04/14 04:41:50;;;;;;;12.17;7.10;;;7.00;99.90;;;;;;4226413;28;20105;-60
2023/04/14 04:43:52;;;;;;;12.43;7.53;;;7.10;99.90;;;;;;4225188;28;20438;-63
2023/04/14 04:46:12;;;;;;;11.80;7.33;;;7.30;99.90;;;;;;4227862;28;20028;-65
2023/04/14 04:48:13;;;;;;;10.43;6.28;;;7.70;99.90;;;;;;4226247;28;20421;-61
2023/04/14 04:50:14;;;;;;;8.33;5.80;;;8.00;99.90;;;;;;4226818;28;20035;-61
2023/04/14 04:52:15;;;;;;;8.67;5.17;;;8.30;99.90;;;;;;4226211;28;20076;-64
2023/04/14 04:54:17;;;;;;;9.10;5.77;;;8.40;99.90;;;;;;4225673;28;20043;-60
2023/04/14 04:56:18;;;;;;;11.30;6.57;;;8.30;99.90;;;;;;4225095;28;20363;-61
2023/04/14 04:58:19;;;;;;;10.47;5.57;;;8.20;99.90;;;;;;4230114;28;20360;-67
2023/04/14 05:00:21;;;;;;;9.63;6.50;;;8.10;99.90;;;;;;4229669;28;20036;-61
2023/04/14 05:02:23;;;;;;;10.33;5.30;;;8.10;99.90;;;;;;4224549;28;20039;-62
2023/04/14 05:04:24;;;;;;;9.13;5.17;;;8.10;99.90;;;;;;4229441;28;20036;-62
2023/04/14 05:06:26;;;;;;;7.43;5.10;;;8.20;99.90;;;;;;4229563;28;20024;-63
2023/04/14 05:08:28;;;;;;;8.83;4.90;;;8.30;99.90;;;;;;4229283;28;20472;-62
2023/04/14 05:10:29;;;;;;;8.70;5.20;;;8.60;99.90;;;;;;4227757;28;20040;-61
2023/04/14 05:12:30;;;;;;;6.60;4.50;;;8.70;99.90;;;;;;4230167;28;20062;-64
2023/04/14 05:14:31;;;;;;;7.60;4.90;;;8.90;99.90;;;;;;4228426;28;20028;-61
2023/04/14 05:16:32;;;;;;;7.07;5.00;;;9.10;99.90;;;;;;4229525;28;20027;-59
2023/04/14 05:18:35;;;;;;;6.23;4.70;;;9.30;99.90;;;;;;4229078;28;20035;-61
2023/04/14 05:20:36;;;;;;;6.83;4.30;;;9.40;99.90;;;;;;4229617;28;20035;-61
2023/04/14 05:22:37;;;;;;;11.27;4.37;;;9.40;99.90;;;;;;4212228;28;20435;-61
2023/04/14 05:24:38;;;;;;;9.13;4.90;;;9.40;99.90;;;;;;4213034;28;20085;-65
2023/04/14 05:26:40;;;;;;;7.53;4.53;;;9.40;99.90;;;;;;4211224;28;20121;-64
2023/04/14 05:28:41;;;;;;;7.50;3.67;;;9.60;99.90;;;;;;4220412;28;20040;-64
2023/04/14 05:30:42;;;;;;;10.47;5.47;;;9.60;99.90;;;;;;4229319;28;20031;-60
2023/04/14 05:32:44;;;;;;;10.40;4.77;;;9.60;99.90;;;;;;4229662;28;20072;-62
2023/04/14 05:34:45;;;;;;;8.70;5.20;;;9.50;99.90;;;;;;4228939;28;20073;-62
2023/04/14 05:36:46;;;;;;;7.13;3.80;;;9.50;99.90;;;;;;4228727;28;20040;-62
2023/04/14 05:38:47;;;;;;;6.07;3.70;;;9.50;99.90;;;;;;4228944;28;20039;-61
2023/04/14 05:40:48;;;;;;;6.60;3.80;;;9.50;99.90;;;;;;4227691;28;20032;-65
2023/04/14 05:42:49;;;;;;;4.47;3.53;;;9.50;99.90;;;;;;4228933;28;20059;-67
2023/04/14 05:44:51;;;;;;;8.77;4.13;;;9.50;99.90;;;;;;4228518;28;20498;-60
2023/04/14 05:46:52;;;;;;;5.23;3.17;;;9.60;99.90;;;;;;4229418;28;20023;-60
2023/04/14 05:48:53;;;;;;;6.13;3.57;;;9.60;99.90;;;;;;4227565;28;20027;-61
2023/04/14 05:50:54;;;;;;;6.83;3.37;;;9.60;99.90;;;;;;4229463;28;20023;-62
2023/04/14 05:52:55;;;;;;;7.13;3.40;;;9.60;99.90;;;;;;4227400;28;20487;-61
2023/04/14 05:54:56;;;;;;;6.73;3.73;;;9.70;99.90;;;;;;4229320;28;20467;-61
2023/04/14 05:56:58;;;;;;;6.27;3.73;;;9.60;99.90;;;;;;4228230;28;20023;-60
2023/04/14 05:58:59;;;;;;;4.23;3.43;;;9.80;99.90;;;;;;4228987;28;20088;-61
2023/04/14 06:01:02;;;;;;;9.47;3.77;;;9.80;99.90;;;;;;4226841;28;20089;-61
2023/04/14 06:03:03;;;;;;;6.07;4.03;;;9.80;99.90;;;;;;4227197;28;20732;-61
2023/04/14 06:05:06;;;;;;;11.67;3.70;;;9.90;99.90;;;;;;4227744;28;20048;-61
2023/04/14 06:07:07;;;;;;;6.20;3.40;;;9.90;99.90;;;;;;4227359;28;20077;-62
2023/04/14 06:09:08;;;;;;;5.80;3.70;;;10.00;99.90;;;;;;4227878;28;20039;-61
2023/04/14 06:11:10;;;;;;;7.87;3.70;;;10.00;99.90;;;;;;4227676;28;20044;-62
2023/04/14 06:13:11;;;;;;;6.67;3.60;;;10.00;99.90;;;;;;4227905;28;20058;-61
2023/04/14 06:15:12;;;;;;;8.20;3.87;;;10.00;99.90;;;;;;4227399;28;20040;-61
2023/04/14 06:17:13;;;;;;;7.00;3.27;;;10.00;99.90;;;;;;4228399;28;20425;-61
2023/04/14 06:19:14;;;;;;;8.20;3.60;;;10.00;99.90;;;;;;4226962;28;20555;-62
2023/04/14 06:21:15;;;;;;;5.20;3.67;;;10.00;99.90;;;;;;4229290;28;20037;-61
2023/04/14 06:23:17;;;;;;;7.33;3.87;;;10.00;99.90;;;;;;4228141;28;20089;-61
2023/04/14 06:25:18;;;;;;;8.80;4.27;;;9.90;99.90;;;;;;4228027;28;20365;-61
2023/04/14 06:27:19;;;;;;;8.77;4.40;;;9.90;99.90;;;;;;4227728;28;20057;-61
2023/04/14 06:29:20;;;;;;;9.00;4.70;;;10.00;99.90;;;;;;4229003;28;20031;-61
2023/04/14 06:31:21;;;;;;;10.67;4.43;;;10.00;99.90;;;;;;4226426;28;20100;-61
2023/04/14 06:33:22;;;;;;;5.93;4.30;;;10.00;99.90;;;;;;4228201;28;20062;-61
2023/04/14 06:35:24;;;;;;;6.57;3.73;;;10.10;99.90;;;;;;4226076;28;20073;-64
2023/04/14 06:37:25;;;;;;;7.03;4.03;;;10.20;99.90;;;;;;4228226;28;20032;-61
2023/04/14 06:39:26;;;;;;;6.63;4.03;;;10.20;99.90;;;;;;4227616;28;21127;-61
2023/04/14 06:41:28;;;;;;;7.33;3.90;;;10.20;99.90;;;;;;4226698;28;20441;-61
2023/04/14 06:43:29;;;;;;;5.43;3.93;;;10.30;99.90;;;;;;4227024;28;20784;-66
2023/04/14 06:45:30;;;;;;;5.83;3.60;;;10.40;99.90;;;;;;4226754;28;20031;-60
2023/04/14 06:47:31;;;;;;;5.67;3.27;;;10.50;99.90;;;;;;4228522;28;20069;-60
2023/04/14 06:49:32;;;;;;;6.37;3.60;;;10.60;99.90;;;;;;4226260;28;20496;-61
2023/04/14 06:51:34;;;;;;;5.27;2.97;;;10.70;99.90;;;;;;4228413;28;20023;-63
2023/04/14 06:53:35;;;;;;;7.43;3.30;;;10.80;99.90;;;;;;4215396;28;20020;-61
2023/04/14 06:55:39;;;;;;;6.10;2.77;;;10.80;99.90;;;;;;4210923;28;20475;-63
2023/04/14 06:57:41;;;;;;;12.00;2.90;;;11.00;99.90;;;;;;4209976;28;20040;-62
2023/04/14 06:59:42;;;;;;;2.97;2.37;;;11.00;99.90;;;;;;4210860;28;20449;-60
2023/04/14 07:01:43;;;;;;;5.47;3.33;;;11.10;99.90;;;;;;4218435;28;20120;-62
2023/04/14 07:03:45;;;;;;;5.80;3.40;;;11.30;99.90;;;;;;4227857;28;20106;-62
2023/04/14 07:05:46;;;;;;;7.00;4.07;;;11.50;99.90;;;;;;4225618;28;20027;-60
2023/04/14 07:07:47;;;;;;;7.43;3.93;;;11.60;99.90;;;;;;4226510;28;20329;-62
2023/04/14 07:09:49;;;;;;;5.90;3.23;;;11.70;99.90;;;;;;4226964;28;20073;-62
2023/04/14 07:11:52;;;;;;;6.17;3.50;;;11.90;99.90;;;;;;4225972;28;20541;-63
2023/04/14 07:13:53;;;;;;;6.73;3.00;;;11.90;99.90;;;;;;4225654;28;20035;-61
2023/04/14 07:15:54;;;;;;;5.10;2.50;;;12.00;99.90;;;;;;4207271;28;20078;-63
2023/04/14 07:17:55;;;;;;;5.47;3.60;;;12.00;99.90;;;;;;4227916;28;20100;-62
2023/04/14 07:19:57;;;;;;;6.07;2.87;;;12.10;99.90;;;;;;4225801;28;20697;-63
2023/04/14 07:21:58;;;;;;;4.67;3.20;;;12.10;99.90;;;;;;4227722;28;20543;-62
2023/04/14 07:23:59;;;;;;;5.23;3.07;;;12.20;99.90;;;;;;4226193;28;20040;-61
2023/04/14 07:26:00;;;;;;;4.33;3.03;;;12.30;99.90;;;;;;4227188;28;20540;-62
2023/04/14 07:28:02;;;;;;;3.03;2.40;;;12.40;99.90;;;;;;4226940;28;20069;-61
2023/04/14 07:30:04;;;;;;;4.93;3.00;;;12.40;99.90;;;;;;4227623;28;20101;-62
2023/04/14 07:32:05;;;;;;;5.17;2.90;;;12.40;99.90;;;;;;4226134;28;20679;-63
2023/04/14 07:34:06;;;;;;;6.40;3.10;;;12.40;99.90;;;;;;4227368;28;20039;-61
2023/04/14 07:36:08;;;;;;;7.43;2.77;;;12.50;99.90;;;;;;4226408;28;20023;-60
2023/04/14 07:38:09;;;;;;;6.53;3.53;;;12.60;99.90;;;;;;4226740;28;20096;-60
2023/04/14 07:40:10;;;;;;;5.50;4.00;;;12.80;99.90;;;;;;4225670;28;20059;-61
2023/04/14 07:42:12;;;;;;;4.37;3.07;;;13.00;99.90;;;;;;4226526;28;20035;-63
2023/04/14 07:44:13;;;;;;;5.50;3.20;;;13.30;99.90;;;;;;4208339;28;20098;-60
2023/04/14 07:46:14;;;;;;;7.93;3.90;;;13.60;99.90;;;;;;4224780;28;20036;-62
2023/04/14 07:48:18;;;;;;;6.57;3.40;;;13.80;99.90;;;;;;4227604;28;20088;-62
2023/04/14 07:50:19;;;;;;;4.30;2.93;;;14.00;99.90;;;;;;4225940;28;20560;-64
2023/04/14 07:52:20;;;;;;;4.80;3.03;;;14.00;99.90;;;;;;4227263;28;20738;-63
2023/04/14 07:54:22;;;;;;;4.67;2.47;;;13.90;99.90;;;;;;4225532;28;20044;-64
2023/04/14 07:56:23;;;;;;;4.17;3.03;;;13.90;99.90;;;;;;4227083;28;20358;-62
2023/04/14 07:58:24;;;;;;;5.17;2.73;;;13.90;99.90;;;;;;4225971;28;20027;-64
2023/04/14 08:00:25;;;;;;;5.07;2.90;;;14.10;99.90;;;;;;4227280;28;20471;-63
2023/04/14 08:02:27;;;;;;;4.40;2.40;;;14.10;99.90;;;;;;4225402;28;20364;-62
2023/04/14 08:04:28;;;;;;;5.27;2.60;;;14.30;99.90;;;;;;4225828;28;20039;-63
2023/04/14 08:06:29;;;;;;;7.07;2.70;;;14.30;99.90;;;;;;4226032;28;20471;-62
2023/04/14 08:08:30;;;;;;;4.43;2.67;;;14.30;99.90;;;;;;4225629;28;20031;-63
2023/04/14 08:10:31;;;;;;;5.30;2.80;;;14.40;99.90;;;;;;4226509;28;20019;-61
2023/04/14 08:12:33;;;;;;;5.70;2.63;;;14.40;99.90;;;;;;4225439;28;20484;-65
2023/04/14 08:14:34;;;;;;;2.70;2.30;;;14.50;99.90;;;;;;4226800;28;20068;-60
2023/04/14 08:16:35;;;;;;;5.17;2.83;;;14.50;99.90;;;;;;4226774;28;20421;-61
2023/04/14 08:18:39;;;;;;;4.07;2.60;;;14.40;99.90;;;;;;4225515;28;20524;-67
2023/04/14 08:20:40;;;;;;;4.67;2.70;;;14.40;99.90;;;;;;4226181;28;20032;-61
2023/04/14 08:22:42;;;;;;;5.50;2.67;;;14.40;99.90;;;;;;4226571;28;20043;-61
2023/04/14 08:24:43;;;;;;;3.17;2.07;;;14.50;99.90;;;;;;4226515;28;20023;-62
2023/04/14 08:26:44;;;;;;;8.20;2.70;;;14.50;99.90;;;;;;4227029;28;20044;-66
2023/04/14 08:28:45;;;;;;;4.23;2.60;;;14.60;99.90;;;;;;4226286;28;20080;-63
2023/04/14 08:30:48;;;;;;;4.93;3.03;;;14.70;99.90;;;;;;4210170;28;20085;-62
2023/04/14 08:32:49;;;;;;;5.17;2.63;;;14.70;99.90;;;;;;4229947;28;20016;-62
2023/04/14 08:34:50;;;;;;;4.10;2.70;;;14.80;99.90;;;;;;4230534;28;20028;-61
2023/04/14 08:36:51;;;;;;;4.83;2.97;;;14.90;99.90;;;;;;4229778;28;20024;-62
2023/04/14 08:38:52;;;;;;;3.53;2.70;;;15.10;99.90;;;;;;4212005;28;20070;-63
2023/04/14 08:40:55;;;;;;;5.23;2.77;;;15.20;99.60;;;;;;4229893;28;20088;-62
2023/04/14 08:42:56;;;;;;;5.90;2.30;;;15.30;99.40;;;;;;4229979;28;20052;-68
2023/04/14 08:44:57;;;;;;;4.17;2.70;;;15.40;99.60;;;;;;4229963;28;20035;-60
2023/04/14 08:46:59;;;;;;;3.25;2.65;;;15.60;99.30;;;;;;4229729;28;20088;-65
2023/04/14 08:49:04;;;;;;;3.80;2.75;;;15.80;98.90;;;;;;4228800;28;20325;-61
2023/04/14 08:51:33;;;;;;;6.97;2.93;;;16.00;98.30;;;;;;4228120;28;20437;-67
2023/04/14 08:53:41;;;;;;;4.40;2.47;;;16.10;98.10;;;;;;4212028;28;20044;-61
2023/04/14 08:55:43;;;;;;;6.60;3.13;;;16.30;97.90;;;;;;4221056;28;20390;-60
2023/04/14 08:57:46;;;;;;;6.10;3.03;;;16.40;97.80;;;;;;4228616;28;20352;-64
2023/04/14 08:59:48;;;;;;;3.92;2.63;;;16.30;97.50;;;;;;4227669;28;20047;-60
2023/04/14 09:01:51;;;;;;;3.80;2.88;;;16.20;97.40;;;;;;4229108;28;20683;-61
2023/04/14 09:03:53;;;;;;;2.65;2.35;;;16.00;97.40;;;;;;4227999;28;20104;-65
2023/04/14 09:05:55;;;;;;;3.17;2.45;;;15.90;97.60;;;;;;4230426;28;20139;-62
2023/04/14 09:07:57;;;;;;;6.18;3.35;;;15.90;98.00;;;;;;4228547;28;20096;-69
2023/04/14 09:09:59;;;;;;;5.07;3.00;;;16.00;97.90;;;;;;4230229;28;20040;-62
2023/04/14 09:12:02;;;;;;;4.93;2.88;;;16.00;97.70;;;;;;4228111;28;20506;-61
2023/04/14 09:14:03;;;;;;;5.68;2.42;;;16.10;97.50;;;;;;4230096;28;20023;-65
2023/04/14 09:16:05;;;;;;;4.00;3.13;;;16.10;97.40;;;;;;4228248;28;20160;-66
2023/04/14 09:18:07;;;;;;;7.13;2.45;;;16.00;97.20;;;;;;4230158;28;20031;-61
2023/04/14 09:20:10;;;;;;;4.40;2.50;;;16.20;97.20;;;;;;4227693;28;20092;-60
2023/04/14 09:22:11;;;;;;;3.42;2.47;;;16.40;97.20;;;;;;4229537;28;20072;-61
2023/04/14 09:24:16;;;;;;;4.35;2.22;;;16.50;96.70;;;;;;4227752;28;20047;-61
2023/04/14 09:26:18;;;;;;;4.50;2.67;;;16.70;96.90;;;;;;4228363;28;20039;-60
2023/04/14 09:28:19;;;;;;;4.55;3.08;;;16.80;96.70;;;;;;4228952;28;20076;-61
2023/04/14 09:30:20;;;;;;;6.75;2.53;;;17.00;96.60;;;;;;4228565;28;20047;-62
2023/04/14 09:32:21;;;;;;;6.85;3.42;;;16.80;96.10;;;;;;4212074;28;20031;-67
2023/04/14 09:34:23;;;;;;;9.32;2.60;;;16.70;96.40;;;;;;4228933;28;20471;-64
2023/04/14 09:36:27;;;;;;;3.83;2.35;;;16.80;96.70;;;;;;4229691;28;20499;-62
2023/04/14 09:38:40;;;;;;;4.03;2.80;;;16.80;96.60;;;;;;4227823;28;20522;-64
2023/04/14 09:40:43;;;;;;;8.48;3.35;;;16.80;96.50;;;;;;4215635;28;20495;-63
2023/04/14 09:42:45;;;;;;;6.13;2.72;;;16.90;96.60;;;;;;4227528;28;20077;-62
2023/04/14 09:44:55;;;;;;;10.10;3.10;;;17.10;96.50;;;;;;4228374;28;20469;-62
2023/04/14 09:47:01;;;;;;;6.30;3.13;;;17.10;96.10;;;;;;4211853;28;20828;-63
2023/04/14 09:49:05;;;;;;;7.68;3.85;;;17.20;96.10;;;;;;4212185;28;20096;-63
2023/04/14 09:51:11;;;;;;;4.25;2.38;;;17.20;96.30;;;;;;4215824;28;20088;-63
2023/04/14 09:53:13;;;;;;;5.50;2.00;;;17.10;96.00;;;;;;4227047;28;20040;-63
2023/04/14 09:55:15;;;;;;;6.38;2.15;;;17.20;96.10;;;;;;4228337;28;20658;-64
2023/04/14 09:57:27;;;;;;;21.23;10.32;;;17.20;95.80;;;;;;4229174;28;20039;-69
2023/04/14 09:59:37;;;;;;;3.13;1.83;;;17.20;96.00;;;;;;4228163;28;20092;-63
2023/04/14 10:01:38;;;;;;;5.43;2.17;;;17.20;95.20;;;;;;4229214;28;20437;-62
2023/04/14 10:03:48;;;;;;;3.97;2.05;;;17.10;95.50;;;;;;4227329;28;20031;-63
2023/04/14 10:05:49;;;;;;;2.15;1.60;;;17.20;95.40;;;;;;4228924;28;20368;-63
2023/04/14 10:07:50;;;;;;;3.50;2.08;;;17.20;95.20;;;;;;4227140;28;20096;-64
2023/04/14 10:09:51;;;;;;;2.53;2.33;;;17.10;94.90;;;;;;4227686;28;20368;-63
2023/04/14 10:12:13;;;;;;;1.92;1.70;;;17.10;94.80;;;;;;4227974;28;20070;-63
2023/04/14 10:14:14;;;;;;;3.80;2.35;;;17.10;94.70;;;;;;4229081;28;20445;-63
2023/04/14 10:16:16;;;;;;;4.20;1.90;;;17.00;94.70;;;;;;4228485;28;20450;-67
2023/04/14 10:18:17;;;;;;;4.40;2.28;;;17.00;94.60;;;;;;4228258;28;20368;-63
2023/04/14 10:20:19;;;;;;;4.97;2.00;;;17.10;94.60;;;;;;4228793;28;20044;-62
2023/04/14 10:22:22;;;;;;;7.00;2.10;;;17.10;94.70;;;;;;4227653;28;20039;-61
2023/04/14 10:24:24;;;;;;;4.82;1.92;;;17.10;94.50;;;;;;4229012;28;20064;-63
2023/04/14 10:26:25;;;;;;;3.45;2.20;;;17.20;94.70;;;;;;4227947;28;20027;-66
2023/04/14 10:28:29;;;;;;;3.92;1.98;;;17.20;94.60;;;;;;4229046;28;20028;-62
2023/04/14 10:30:31;;;;;;;6.05;1.80;;;17.20;94.70;;;;;;4227955;28;20031;-63
2023/04/14 10:32:35;;;;;;;2.42;1.80;;;17.20;94.30;;;;;;4229218;28;20084;-63
2023/04/14 10:34:37;;;;;;;3.40;1.77;;;17.30;94.50;;;;;;4227840;28;20477;-62
2023/04/14 10:36:38;;;;;;;7.20;2.53;;;17.40;94.30;;;;;;4228698;28;20089;-62
2023/04/14 10:38:42;;;;;;;4.00;1.50;;;17.50;94.10;;;;;;4226959;28;20035;-60
2023/04/14 10:40:49;;;;;;;3.10;1.80;;;17.50;93.70;;;;;;4227505;28;20055;-62
2023/04/14 10:42:52;;;;;;;2.35;1.60;;;17.40;93.40;;;;;;4226449;28;20040;-69